createdAt,value
2022-10-29T00:02:01.274Z,101905.00
2022-10-29T00:04:29.163Z,101904.13
2022-10-29T00:06:58.528Z,101910.75
2022-10-29T00:09:26.396Z,101910.38
2022-10-29T00:11:54.208Z,101912.56
2022-10-29T00:14:22.381Z,101915.28
2022-10-29T00:16:50.292Z,101915.81
2022-10-29T00:19:18.172Z,101912.47
2022-10-29T00:21:46.108Z,101915.09
2022-10-29T00:24:15.406Z,101910.03
2022-10-29T00:26:43.426Z,101914.66
2022-10-29T00:29:11.524Z,101924.75
2022-10-29T00:31:39.412Z,101927.25
2022-10-29T00:34:07.517Z,101924.97
2022-10-29T00:36:35.517Z,101927.47
2022-10-29T00:39:03.372Z,101935.56
2022-10-29T00:41:32.572Z,101940.41
2022-10-29T00:44:26.894Z,101932.34
2022-10-29T00:47:02.626Z,101937.09
2022-10-29T00:49:32.181Z,101932.75
2022-10-29T00:52:02.397Z,101942.16
2022-10-29T00:54:33.604Z,101948.72
2022-10-29T00:57:08.966Z,101954.03
2022-10-29T00:59:37.174Z,101947.88
2022-10-29T01:02:05.234Z,101953.47
2022-10-29T01:04:33.258Z,101954.66
2022-10-29T01:07:01.431Z,101956.69
2022-10-29T01:09:29.253Z,101963.19
2022-10-29T01:12:11.287Z,101968.78
2022-10-29T01:14:51.563Z,101967.06
2022-10-29T01:17:28.721Z,101967.25
2022-10-29T01:20:27.888Z,101961.19
2022-10-29T01:23:12.587Z,101970.78
2022-10-29T01:26:13.459Z,101973.47
2022-10-29T01:29:00.505Z,101962.91
2022-10-29T01:31:35.393Z,101964.84
2022-10-29T01:34:08.223Z,101981.19
2022-10-29T01:36:45.246Z,101977.00
2022-10-29T01:39:21.432Z,101975.50
2022-10-29T01:41:56.152Z,101985.50
2022-10-29T01:44:34.220Z,101990.25
2022-10-29T01:47:04.903Z,101987.66
2022-10-29T01:49:39.054Z,101970.09
2022-10-29T01:52:10.040Z,101976.75
2022-10-29T01:54:42.261Z,101976.94
2022-10-29T01:57:31.635Z,101987.69
2022-10-29T02:00:03.006Z,101978.84
2022-10-29T02:02:48.416Z,101977.91
2022-10-29T02:05:24.986Z,101989.31
2022-10-29T02:07:57.873Z,101992.06
2022-10-29T02:10:33.762Z,101997.44
2022-10-29T02:13:01.789Z,101994.97
2022-10-29T02:15:34.723Z,101992.28
2022-10-29T02:18:06.329Z,102000.56
2022-10-29T02:20:34.865Z,101997.22
2022-10-29T02:23:02.749Z,101995.59
2022-10-29T02:25:30.642Z,101989.31
2022-10-29T02:27:58.700Z,101979.94
2022-10-29T02:30:26.711Z,101992.63
2022-10-29T02:32:54.822Z,101980.03
2022-10-29T02:35:24.765Z,101977.47
2022-10-29T02:37:52.993Z,101978.41
2022-10-29T02:40:20.842Z,101978.63
2022-10-29T02:42:48.857Z,101980.31
2022-10-29T02:45:16.870Z,101974.94
2022-10-29T02:47:44.702Z,101983.03
2022-10-29T02:50:12.601Z,101970.44
2022-10-29T02:52:42.592Z,101961.41
2022-10-29T02:55:10.823Z,101964.94
2022-10-29T02:57:38.799Z,101972.91
2022-10-29T03:00:07.652Z,101962.16
2022-10-29T03:02:35.606Z,101964.00
2022-10-29T03:05:04.011Z,101969.16
2022-10-29T03:07:36.344Z,101981.69
2022-10-29T03:10:06.269Z,101982.34
2022-10-29T03:12:34.531Z,101976.53
2022-10-29T03:15:02.401Z,101978.28
2022-10-29T03:17:30.554Z,101977.09
2022-10-29T03:19:58.447Z,101971.50
2022-10-29T03:22:26.342Z,101978.41
2022-10-29T03:24:54.414Z,101983.59
2022-10-29T03:27:23.717Z,101982.41
2022-10-29T03:29:51.628Z,101983.06
2022-10-29T03:32:19.734Z,101982.84
2022-10-29T03:34:47.623Z,101990.66
2022-10-29T03:37:15.520Z,101975.13
2022-10-29T03:39:43.456Z,101972.44
2022-10-29T03:42:11.430Z,101962.31
2022-10-29T03:44:40.676Z,101964.72
2022-10-29T03:47:09.109Z,101977.97
2022-10-29T03:49:37.067Z,101970.88
2022-10-29T03:52:05.145Z,101974.31
2022-10-29T03:54:33.252Z,101979.59
2022-10-29T03:57:01.158Z,101980.78
2022-10-29T03:59:29.072Z,101980.53
2022-10-29T04:01:58.431Z,101973.56
2022-10-29T04:04:26.367Z,101973.56
2022-10-29T04:06:54.197Z,101975.38
2022-10-29T04:09:22.051Z,101976.56
2022-10-29T04:11:49.935Z,101971.81
2022-10-29T04:14:18.063Z,101966.00
2022-10-29T04:16:46.067Z,101966.41
2022-10-29T04:19:15.510Z,101967.69
2022-10-29T04:30:08.563Z,101964.69
2022-10-29T04:32:36.549Z,101972.00
2022-10-29T04:35:06.710Z,101977.50
2022-10-29T04:37:34.715Z,101981.91
2022-10-29T04:40:02.583Z,101983.00
2022-10-29T04:42:30.520Z,101986.63
2022-10-29T04:44:58.496Z,101988.56
2022-10-29T04:47:26.411Z,101992.00
2022-10-29T04:49:54.249Z,101992.00
2022-10-29T04:52:23.471Z,101982.00
2022-10-29T04:54:52.591Z,101978.38
2022-10-29T04:57:20.411Z,101978.94
2022-10-29T04:59:48.299Z,101982.38
2022-10-29T05:02:16.140Z,101984.84
2022-10-29T05:04:43.981Z,101981.13
2022-10-29T05:07:11.933Z,101987.16
2022-10-29T05:09:41.104Z,101988.03
2022-10-29T05:12:09.633Z,102003.41
2022-10-29T05:14:37.671Z,102008.97
2022-10-29T05:19:38.511Z,102006.72
2022-10-29T05:22:06.392Z,102008.44
2022-10-29T05:24:34.300Z,102011.13
2022-10-29T05:27:03.780Z,102011.03
2022-10-29T05:29:31.591Z,102014.59
2022-10-29T05:31:59.426Z,102014.47
2022-10-29T05:34:27.724Z,102010.84
2022-10-29T05:36:55.621Z,102012.66
2022-10-29T05:39:23.440Z,102003.06
2022-10-29T05:41:51.286Z,102002.19
2022-10-29T05:44:20.508Z,102005.53
2022-10-29T05:46:49.750Z,101998.03
2022-10-29T05:49:17.738Z,101999.63
2022-10-29T05:51:45.690Z,102004.84
2022-10-29T05:54:13.544Z,101999.63
2022-10-29T05:56:41.459Z,102020.00
2022-10-29T05:59:09.389Z,102006.94
2022-10-29T06:01:38.709Z,102004.25
2022-10-29T06:04:06.799Z,102011.16
2022-10-29T06:06:34.761Z,102004.72
2022-10-29T06:09:02.761Z,102013.75
2022-10-29T06:11:30.688Z,102008.28
2022-10-29T06:13:58.613Z,102002.16
2022-10-29T06:16:26.441Z,101999.09
2022-10-29T06:18:56.594Z,102008.81
2022-10-29T06:21:24.458Z,102005.78
2022-10-29T06:23:54.185Z,102013.75
2022-10-29T06:26:22.862Z,102007.53
2022-10-29T06:28:50.747Z,102001.56
2022-10-29T06:31:18.713Z,102011.78
2022-10-29T06:33:46.878Z,102012.94
2022-10-29T06:36:16.153Z,102008.31
2022-10-29T06:38:44.080Z,102007.38
2022-10-29T06:41:12.076Z,102015.56
2022-10-29T06:43:39.917Z,102019.31
2022-10-29T06:46:07.793Z,102013.94
2022-10-29T06:48:35.756Z,102011.34
2022-10-29T06:51:03.583Z,102019.31
2022-10-29T06:53:33.347Z,102020.19
2022-10-29T06:56:01.344Z,102023.44
2022-10-29T06:58:29.166Z,102034.84
2022-10-29T07:03:25.875Z,102038.22
2022-10-29T07:05:57.243Z,102035.13
2022-10-29T07:08:25.140Z,102040.41
2022-10-29T07:10:55.511Z,102040.94
2022-10-29T07:13:23.723Z,102045.69
2022-10-29T07:15:51.680Z,102051.81
2022-10-29T07:18:19.748Z,102047.75
2022-10-29T07:20:47.741Z,102060.38
2022-10-29T07:23:15.570Z,102050.34
2022-10-29T07:25:43.676Z,102047.97
2022-10-29T07:28:16.229Z,102054.56
2022-10-29T07:30:45.038Z,102062.34
2022-10-29T07:33:12.937Z,102054.94
2022-10-29T07:35:40.762Z,102061.63
2022-10-29T07:38:11.297Z,102066.75
2022-10-29T07:40:40.357Z,102065.69
2022-10-29T07:43:08.429Z,102072.63
2022-10-29T07:45:37.863Z,102070.31
2022-10-29T07:48:08.725Z,102063.44
2022-10-29T07:50:37.157Z,102076.19
2022-10-29T07:53:06.455Z,102077.69
2022-10-29T07:55:34.548Z,102081.91
2022-10-29T07:58:04.137Z,102087.94
2022-10-29T08:00:33.659Z,102087.75
2022-10-29T08:03:03.187Z,102091.78
2022-10-29T08:05:31.973Z,102083.59
2022-10-29T08:08:00.456Z,102085.88
2022-10-29T08:10:29.583Z,102084.59
2022-10-29T08:12:59.636Z,102091.16
2022-10-29T08:15:28.842Z,102090.16
2022-10-29T08:17:57.514Z,102087.53
2022-10-29T08:20:28.939Z,102093.00
2022-10-29T08:22:56.870Z,102084.63
2022-10-29T08:25:26.100Z,102076.13
2022-10-29T08:28:01.413Z,102070.94
2022-10-29T08:30:29.718Z,102065.97
2022-10-29T08:32:58.017Z,102057.56
2022-10-29T08:35:27.914Z,102044.50
2022-10-29T08:37:56.010Z,102041.16
2022-10-29T08:40:30.685Z,102043.97
2022-10-29T08:43:47.148Z,102040.63
2022-10-29T08:46:22.382Z,102035.78
2022-10-29T08:48:56.209Z,102038.59
2022-10-29T08:51:30.239Z,102040.19
2022-10-29T08:56:51.452Z,102029.06
2022-10-29T08:59:21.837Z,102016.91
2022-10-29T09:01:50.089Z,102015.59
2022-10-29T09:04:26.691Z,102016.03
2022-10-29T09:07:21.230Z,102034.38
2022-10-29T09:09:55.495Z,102044.19
2022-10-29T09:12:39.230Z,102065.84
2022-10-29T09:15:31.697Z,102065.00
2022-10-29T09:18:13.014Z,102067.00
2022-10-29T09:20:52.112Z,102051.25
2022-10-29T09:23:31.600Z,102049.34
2022-10-29T09:26:04.122Z,102058.41
2022-10-29T09:28:45.311Z,102053.56
2022-10-29T09:31:25.606Z,102045.47
2022-10-29T09:33:57.805Z,102049.47
2022-10-29T09:36:30.839Z,102046.88
2022-10-29T09:39:03.669Z,102046.00
2022-10-29T09:41:34.437Z,102040.06
2022-10-29T09:44:08.669Z,102049.66
2022-10-29T09:46:46.260Z,102049.03
2022-10-29T09:49:30.348Z,102037.28
2022-10-29T09:52:02.197Z,102010.63
2022-10-29T09:54:32.666Z,101997.81
2022-10-29T09:57:03.323Z,102001.44
2022-10-29T09:59:35.018Z,102006.63
2022-10-29T10:02:03.086Z,102005.75
2022-10-29T10:04:37.234Z,102001.09
2022-10-29T10:07:08.104Z,101990.88
2022-10-29T10:09:54.424Z,101991.50
2022-10-29T10:12:25.189Z,101988.34
2022-10-29T10:15:04.661Z,101996.28
2022-10-29T10:17:56.034Z,101996.63
2022-10-29T10:20:37.828Z,101996.81
2022-10-29T10:23:22.378Z,102000.28
2022-10-29T10:25:53.168Z,101999.16
2022-10-29T10:28:23.246Z,101994.78
2022-10-29T10:31:13.572Z,101999.72
2022-10-29T10:33:53.058Z,101996.84
2022-10-29T10:36:24.614Z,101996.28
2022-10-29T10:38:55.207Z,102008.94
2022-10-29T10:41:28.874Z,102003.22
2022-10-29T10:44:00.551Z,102005.41
2022-10-29T10:46:32.679Z,102000.47
2022-10-29T10:49:04.373Z,102007.75
2022-10-29T10:51:34.605Z,102001.03
2022-10-29T10:54:08.386Z,101997.53
2022-10-29T10:56:53.189Z,101985.69
2022-10-29T10:59:21.952Z,101981.66
2022-10-29T11:01:52.626Z,101966.69
2022-10-29T11:04:25.327Z,101967.38
2022-10-29T11:06:56.354Z,101972.31
2022-10-29T11:09:28.300Z,101967.41
2022-10-29T11:12:02.910Z,101975.53
2022-10-29T11:14:36.805Z,101970.03
2022-10-29T11:17:09.476Z,101975.47
2022-10-29T11:19:43.457Z,101971.88
2022-10-29T11:22:19.775Z,101976.78
2022-10-29T11:24:54.301Z,101964.50
2022-10-29T11:27:39.329Z,101966.75
2022-10-29T11:30:11.553Z,101972.16
2022-10-29T11:32:54.440Z,101965.41
2022-10-29T11:35:38.848Z,101962.19
2022-10-29T11:38:15.079Z,101953.72
2022-10-29T11:40:46.715Z,101946.22
2022-10-29T11:43:19.702Z,101947.56
2022-10-29T11:45:59.150Z,101954.81
2022-10-29T11:48:41.947Z,101942.63
2022-10-29T11:51:22.812Z,101943.78
2022-10-29T11:53:59.493Z,101931.47
2022-10-29T11:56:50.147Z,101929.25
2022-10-29T11:59:29.335Z,101924.81
2022-10-29T12:02:10.311Z,101932.28
2022-10-29T12:04:44.997Z,101933.78
2022-10-29T12:07:24.494Z,101926.78
2022-10-29T12:10:16.977Z,101923.94
2022-10-29T12:12:49.923Z,101928.34
2022-10-29T12:15:25.287Z,101919.34
2022-10-29T12:18:01.971Z,101902.47
2022-10-29T12:20:41.372Z,101896.38
2022-10-29T12:23:25.581Z,101890.25
2022-10-29T12:26:02.745Z,101890.59
2022-10-29T12:28:43.039Z,101891.78
2022-10-29T12:31:22.905Z,101883.28
2022-10-29T12:33:59.583Z,101887.88
2022-10-29T12:36:35.270Z,101890.41
2022-10-29T12:39:03.892Z,101892.19
2022-10-29T12:41:38.179Z,101891.06
2022-10-29T12:44:15.266Z,101888.88
2022-10-29T12:46:54.414Z,101884.06
2022-10-29T12:49:37.826Z,101884.31
2022-10-29T12:52:13.260Z,101876.56
2022-10-29T12:54:43.235Z,101877.06
2022-10-29T12:57:29.434Z,101873.50
2022-10-29T12:59:58.653Z,101869.25
2022-10-29T13:02:45.137Z,101877.78
2022-10-29T13:05:38.953Z,101876.13
2022-10-29T13:08:37.579Z,101871.41
2022-10-29T13:11:23.614Z,101872.16
2022-10-29T13:13:58.884Z,101870.84
2022-10-29T13:16:33.018Z,101863.09
2022-10-29T13:19:20.698Z,101862.97
2022-10-29T13:22:45.350Z,101854.84
2022-10-29T13:25:46.330Z,101859.53
2022-10-29T13:28:49.559Z,101862.25
2022-10-29T13:32:02.093Z,101856.34
2022-10-29T13:34:57.737Z,101857.84
2022-10-29T13:37:56.407Z,101844.75
2022-10-29T13:40:57.581Z,101849.09
2022-10-29T13:43:25.826Z,101842.59
2022-10-29T13:46:04.052Z,101855.28
2022-10-29T13:48:36.052Z,101866.75
2022-10-29T13:51:09.460Z,101859.38
2022-10-29T13:53:44.119Z,101861.38
2022-10-29T13:56:18.820Z,101860.78
2022-10-29T13:58:50.301Z,101852.66
2022-10-29T14:01:21.030Z,101853.25
2022-10-29T14:04:00.050Z,101854.13
2022-10-29T14:06:34.341Z,101857.81
2022-10-29T14:09:14.620Z,101854.47
2022-10-29T14:11:48.251Z,101855.94
2022-10-29T14:14:25.375Z,101846.69
2022-10-29T14:17:11.229Z,101849.78
2022-10-29T14:19:39.194Z,101844.97
2022-10-29T14:22:30.123Z,101842.38
2022-10-29T14:24:58.294Z,101853.22
2022-10-29T14:27:26.126Z,101851.38
2022-10-29T14:29:55.627Z,101845.09
2022-10-29T14:32:23.559Z,101833.94
2022-10-29T14:34:52.898Z,101831.13
2022-10-29T14:37:28.914Z,101838.66
2022-10-29T14:39:59.606Z,101841.50
2022-10-29T14:42:32.317Z,101832.00
2022-10-29T14:45:04.151Z,101826.72
2022-10-29T14:47:34.525Z,101836.13
2022-10-29T14:50:04.423Z,101831.19
2022-10-29T14:52:39.752Z,101847.03
2022-10-29T14:55:09.561Z,101833.66
2022-10-29T14:57:43.200Z,101834.25
2022-10-29T15:00:24.843Z,101835.84
2022-10-29T15:02:54.753Z,101831.69
2022-10-29T15:05:26.273Z,101825.38
2022-10-29T15:08:07.100Z,101833.91
2022-10-29T15:10:45.916Z,101829.59
2022-10-29T15:13:24.263Z,101831.22
2022-10-29T15:15:55.165Z,101833.69
2022-10-29T15:18:25.692Z,101821.53
2022-10-29T15:20:55.083Z,101818.97
2022-10-29T15:23:28.144Z,101825.72
2022-10-29T15:26:04.493Z,101814.66
2022-10-29T15:28:38.704Z,101818.59
2022-10-29T15:31:07.167Z,101818.22
2022-10-29T15:33:38.257Z,101821.94
2022-10-29T15:36:07.204Z,101827.06
2022-10-29T15:39:14.648Z,101818.47
2022-10-29T15:41:49.343Z,101813.69
2022-10-29T15:44:38.080Z,101803.00
2022-10-29T15:47:27.381Z,101805.72
2022-10-29T15:49:55.391Z,101805.31
2022-10-29T15:52:28.185Z,101810.59
2022-10-29T15:54:56.165Z,101812.59
2022-10-29T15:57:25.591Z,101815.41
2022-10-29T15:59:57.436Z,101813.94
2022-10-29T16:02:26.574Z,101808.75
2022-10-29T16:04:54.485Z,101805.19
2022-10-29T16:07:22.705Z,101813.56
2022-10-29T16:09:53.394Z,101813.44
2022-10-29T16:12:21.284Z,101807.84
2022-10-29T16:14:50.746Z,101814.75
2022-10-29T16:17:22.124Z,101804.19
2022-10-29T16:19:49.999Z,101809.13
2022-10-29T16:22:22.293Z,101810.94
2022-10-29T16:24:50.460Z,101816.69
2022-10-29T16:27:19.605Z,101803.19
2022-10-29T16:29:49.728Z,101798.16
2022-10-29T16:32:22.799Z,101795.91
2022-10-29T16:34:52.217Z,101785.97
2022-10-29T16:37:21.429Z,101784.34
2022-10-29T16:39:49.342Z,101780.56
2022-10-29T16:42:31.763Z,101775.34
2022-10-29T16:44:59.840Z,101791.47
2022-10-29T16:47:29.446Z,101811.94
2022-10-29T16:49:57.420Z,101821.66
2022-10-29T16:52:29.484Z,101804.84
2022-10-29T16:54:58.085Z,101800.63
2022-10-29T16:57:26.060Z,101816.44
2022-10-29T16:59:53.902Z,101825.28
2022-10-29T17:02:21.975Z,101816.72
2022-10-29T17:04:51.407Z,101816.97
2022-10-29T17:07:20.074Z,101820.44
2022-10-29T17:09:48.116Z,101815.38
2022-10-29T17:12:16.266Z,101815.00
2022-10-29T17:14:44.209Z,101809.53
2022-10-29T17:17:12.323Z,101804.06
2022-10-29T17:19:40.320Z,101801.81
2022-10-29T17:22:14.374Z,101800.22
2022-10-29T17:24:42.479Z,101810.50
2022-10-29T17:27:10.767Z,101815.56
2022-10-29T17:29:39.066Z,101817.59
2022-10-29T17:32:08.834Z,101806.09
2022-10-29T17:34:37.075Z,101807.28
2022-10-29T17:37:05.304Z,101814.41
2022-10-29T17:39:34.690Z,101811.06
2022-10-29T17:42:02.857Z,101820.91
2022-10-29T17:44:32.195Z,101822.59
2022-10-29T17:47:00.167Z,101824.69
2022-10-29T17:49:28.053Z,101821.00
2022-10-29T17:51:56.072Z,101818.19
2022-10-29T17:54:24.060Z,101819.41
2022-10-29T17:56:53.301Z,101809.44
2022-10-29T17:59:21.424Z,101810.69
2022-10-29T18:01:49.451Z,101809.94
2022-10-29T18:04:17.429Z,101798.16
2022-10-29T18:06:45.471Z,101808.94
2022-10-29T18:09:17.083Z,101801.72
2022-10-29T18:11:49.671Z,101810.69
2022-10-29T18:14:19.012Z,101816.53
2022-10-29T18:16:46.930Z,101803.16
2022-10-29T18:19:15.139Z,101817.78
2022-10-29T18:21:42.990Z,101814.34
2022-10-29T18:24:11.148Z,101815.44
2022-10-29T18:26:39.146Z,101813.41
2022-10-29T18:29:09.319Z,101811.81
2022-10-29T18:31:42.353Z,101814.28
2022-10-29T18:34:10.845Z,101807.91
2022-10-29T18:36:40.859Z,101816.97
2022-10-29T18:39:09.115Z,101815.47
2022-10-29T18:41:37.229Z,101811.50
2022-10-29T18:44:05.441Z,101797.16
2022-10-29T18:46:34.010Z,101797.69
2022-10-29T18:49:03.355Z,101797.16
2022-10-29T18:51:32.821Z,101798.47
2022-10-29T18:54:01.596Z,101800.31
2022-10-29T18:56:30.600Z,101797.50
2022-10-29T18:58:59.455Z,101797.06
2022-10-29T19:01:30.421Z,101803.13
2022-10-29T19:04:00.656Z,101791.59
2022-10-29T19:06:32.036Z,101796.38
2022-10-29T19:09:01.137Z,101796.00
2022-10-29T19:11:29.114Z,101792.34
2022-10-29T19:13:59.013Z,101797.94
2022-10-29T19:16:28.171Z,101787.03
2022-10-29T19:18:57.247Z,101791.47
2022-10-29T19:21:25.915Z,101760.44
2022-10-29T19:23:56.790Z,101755.25
2022-10-29T19:26:26.136Z,101767.53
2022-10-29T19:28:54.741Z,101771.50
2022-10-29T19:31:24.405Z,101764.06
2022-10-29T19:33:53.738Z,101758.38
2022-10-29T19:36:22.508Z,101759.53
2022-10-29T19:38:50.590Z,101741.50
2022-10-29T19:41:20.656Z,101731.59
2022-10-29T19:43:48.907Z,101741.50
2022-10-29T19:46:18.314Z,101763.94
2022-10-29T19:48:50.873Z,101773.63
2022-10-29T19:51:19.301Z,101770.09
2022-10-29T19:53:48.703Z,101766.97
2022-10-29T19:56:19.370Z,101772.38
2022-10-29T19:58:47.622Z,101776.91
2022-10-29T20:01:18.448Z,101780.91
2022-10-29T20:03:47.522Z,101775.13
2022-10-29T20:06:16.522Z,101768.72
2022-10-29T20:08:44.471Z,101775.63
2022-10-29T20:11:12.378Z,101772.41
2022-10-29T20:13:41.584Z,101781.50
2022-10-29T20:16:11.196Z,101775.88
2022-10-29T20:18:39.278Z,101773.16
2022-10-29T20:21:08.049Z,101771.44
2022-10-29T20:23:36.536Z,101771.66
2022-10-29T20:26:05.059Z,101761.97
2022-10-29T20:28:33.150Z,101761.63
2022-10-29T20:31:27.812Z,101771.91
2022-10-29T20:33:59.178Z,101760.38
2022-10-29T20:36:29.784Z,101767.34
2022-10-29T20:38:58.060Z,101759.25
2022-10-29T20:41:26.228Z,101751.53
2022-10-29T20:43:55.563Z,101751.00
2022-10-29T20:46:25.672Z,101756.72
2022-10-29T20:48:53.550Z,101756.84
2022-10-29T20:51:22.955Z,101764.69
2022-10-29T20:53:51.318Z,101753.38
2022-10-29T20:56:19.533Z,101755.53
2022-10-29T20:58:48.630Z,101749.41
2022-10-29T21:01:18.649Z,101741.75
2022-10-29T21:03:50.272Z,101735.63
2022-10-29T21:06:18.661Z,101728.44
2022-10-29T21:08:47.137Z,101731.88
2022-10-29T21:11:16.615Z,101735.53
2022-10-29T21:13:44.690Z,101730.13
2022-10-29T21:16:18.027Z,101733.34
2022-10-29T21:18:49.768Z,101734.84
2022-10-29T21:21:19.001Z,101739.59
2022-10-29T21:23:47.133Z,101757.59
2022-10-29T21:26:17.057Z,101755.13
2022-10-29T21:28:45.709Z,101755.00
2022-10-29T21:31:13.786Z,101755.00
2022-10-29T21:33:43.233Z,101751.47
2022-10-29T21:36:14.236Z,101741.91
2022-10-29T21:38:42.403Z,101745.44
2022-10-29T21:41:10.407Z,101746.66
2022-10-29T21:43:39.106Z,101739.19
2022-10-29T21:46:07.162Z,101733.06
2022-10-29T21:48:35.322Z,101734.38
2022-10-29T21:51:05.507Z,101734.47
2022-10-29T21:53:34.882Z,101727.34
2022-10-29T21:56:05.025Z,101729.19
2022-10-29T21:58:33.282Z,101722.94
2022-10-29T22:01:06.111Z,101718.19
2022-10-29T22:03:34.995Z,101715.72
2022-10-29T22:06:04.112Z,101710.25
2022-10-29T22:08:31.986Z,101711.06
2022-10-29T22:11:01.372Z,101709.47
2022-10-29T22:13:29.798Z,101711.81
2022-10-29T22:15:58.072Z,101708.38
2022-10-29T22:18:26.396Z,101706.69
2022-10-29T22:21:07.375Z,101705.81
2022-10-29T22:23:35.816Z,101698.38
2022-10-29T22:26:05.159Z,101691.38
2022-10-29T22:28:33.258Z,101692.25
2022-10-29T22:31:02.538Z,101688.59
2022-10-29T22:33:30.815Z,101686.97
2022-10-29T22:36:06.559Z,101679.78
2022-10-29T22:38:34.432Z,101678.25
2022-10-29T22:41:07.474Z,101674.81
2022-10-29T22:43:35.923Z,101676.75
2022-10-29T22:46:05.300Z,101667.59
2022-10-29T22:48:33.495Z,101663.19
2022-10-29T22:51:03.429Z,101669.44
2022-10-29T22:53:31.330Z,101665.00
2022-10-29T22:55:59.779Z,101670.38
2022-10-29T22:58:29.595Z,101669.66
2022-10-29T23:01:05.689Z,101672.44
2022-10-29T23:03:34.321Z,101661.59
2022-10-29T23:06:03.457Z,101661.47
2022-10-29T23:08:32.489Z,101657.91
2022-10-29T23:11:05.506Z,101654.22
2022-10-29T23:13:35.084Z,101645.19
2022-10-29T23:16:02.967Z,101640.78
2022-10-29T23:18:30.839Z,101646.38
2022-10-29T23:21:00.474Z,101649.06
2022-10-29T23:23:28.750Z,101653.41
2022-10-29T23:26:00.925Z,101647.38
2022-10-29T23:28:29.480Z,101656.53
2022-10-29T23:31:00.410Z,101648.31
2022-10-29T23:33:29.269Z,101640.13
2022-10-29T23:35:57.536Z,101644.69
2022-10-29T23:38:25.448Z,101638.31
2022-10-29T23:40:53.429Z,101637.34
2022-10-29T23:43:21.288Z,101639.06
2022-10-29T23:45:49.208Z,101648.00
2022-10-29T23:48:18.905Z,101646.28
2022-10-29T23:50:47.159Z,101640.13
2022-10-29T23:53:15.530Z,101651.88
2022-10-29T23:55:43.852Z,101643.28
2022-10-29T23:58:12.364Z,101643.59
